sensor_id;sensor_type;location;lat;lon;timestamp;pressure;altitude;pressure_sealevel;temperature
64458;BMP280;58438;51.200;7.252;2023-04-29T00:56:27;97524.66;;;10.39
64458;BMP280;58438;51.200;7.252;2023-04-29T00:59:18;97527.56;;;10.36
64458;BMP280;58438;51.200;7.252;2023-04-29T01:18:59;97534.97;;;10.35
64458;BMP280;58438;51.200;7.252;2023-04-29T01:21:47;97533.03;;;10.36
64458;BMP280;58438;51.200;7.252;2023-04-29T01:24:36;97533.47;;;10.34
64458;BMP280;58438;51.200;7.252;2023-04-29T01:27:27;97541.59;;;10.29
64458;BMP280;58438;51.200;7.252;2023-04-29T01:30:16;97542.44;;;10.20
64458;BMP280;58438;51.200;7.252;2023-04-29T01:33:09;97541.66;;;10.14
64458;BMP280;58438;51.200;7.252;2023-04-29T01:36:05;97553.56;;;10.02
64458;BMP280;58438;51.200;7.252;2023-04-29T01:38:56;97538.13;;;9.94
64458;BMP280;58438;51.200;7.252;2023-04-29T01:41:50;97547.78;;;9.95
64458;BMP280;58438;51.200;7.252;2023-04-29T01:44:39;97543.38;;;9.97
64458;BMP280;58438;51.200;7.252;2023-04-29T01:47:27;97549.50;;;9.93
64458;BMP280;58438;51.200;7.252;2023-04-29T01:50:14;97551.91;;;9.90
64458;BMP280;58438;51.200;7.252;2023-04-29T01:53:01;97552.59;;;9.86
64458;BMP280;58438;51.200;7.252;2023-04-29T01:55:48;97556.81;;;9.87
64458;BMP280;58438;51.200;7.252;2023-04-29T01:58:37;97555.97;;;9.81
64458;BMP280;58438;51.200;7.252;2023-04-29T02:01:24;97548.28;;;9.79
64458;BMP280;58438;51.200;7.252;2023-04-29T02:04:11;97552.97;;;9.79
64458;BMP280;58438;51.200;7.252;2023-04-29T02:06:58;97556.84;;;9.72
64458;BMP280;58438;51.200;7.252;2023-04-29T02:09:45;97556.25;;;9.68
64458;BMP280;58438;51.200;7.252;2023-04-29T02:12:32;97566.88;;;9.66
64458;BMP280;58438;51.200;7.252;2023-04-29T02:15:20;97566.38;;;9.68
64458;BMP280;58438;51.200;7.252;2023-04-29T02:18:07;97571.81;;;9.68
64458;BMP280;58438;51.200;7.252;2023-04-29T02:20:58;97574.00;;;9.64
64458;BMP280;58438;51.200;7.252;2023-04-29T02:23:45;97577.25;;;9.68
64458;BMP280;58438;51.200;7.252;2023-04-29T02:26:32;97573.06;;;9.67
64458;BMP280;58438;51.200;7.252;2023-04-29T02:29:20;97578.22;;;9.65
64458;BMP280;58438;51.200;7.252;2023-04-29T02:32:08;97574.28;;;9.66
64458;BMP280;58438;51.200;7.252;2023-04-29T02:34:56;97578.50;;;9.67
64458;BMP280;58438;51.200;7.252;2023-04-29T02:37:43;97575.66;;;9.61
64458;BMP280;58438;51.200;7.252;2023-04-29T02:40:30;97587.59;;;9.64
64458;BMP280;58438;51.200;7.252;2023-04-29T02:43:17;97580.72;;;9.68
64458;BMP280;58438;51.200;7.252;2023-04-29T02:46:04;97586.44;;;9.70
64458;BMP280;58438;51.200;7.252;2023-04-29T02:48:53;97586.38;;;9.65
64458;BMP280;58438;51.200;7.252;2023-04-29T02:51:40;97592.34;;;9.54
64458;BMP280;58438;51.200;7.252;2023-04-29T02:54:27;97595.75;;;9.49
64458;BMP280;58438;51.200;7.252;2023-04-29T02:57:14;97599.31;;;9.41
64458;BMP280;58438;51.200;7.252;2023-04-29T03:00:02;97599.31;;;9.41
64458;BMP280;58438;51.200;7.252;2023-04-29T03:02:49;97600.41;;;9.34
64458;BMP280;58438;51.200;7.252;2023-04-29T03:05:38;97601.44;;;9.37
64458;BMP280;58438;51.200;7.252;2023-04-29T03:08:25;97610.50;;;9.34
64458;BMP280;58438;51.200;7.252;2023-04-29T03:11:13;97608.75;;;9.31
64458;BMP280;58438;51.200;7.252;2023-04-29T03:14:00;97608.44;;;9.29
64458;BMP280;58438;51.200;7.252;2023-04-29T03:16:47;97610.69;;;9.16
64458;BMP280;58438;51.200;7.252;2023-04-29T03:19:35;97612.47;;;9.19
64458;BMP280;58438;51.200;7.252;2023-04-29T03:22:23;97615.19;;;9.19
64458;BMP280;58438;51.200;7.252;2023-04-29T03:25:11;97618.13;;;9.06
64458;BMP280;58438;51.200;7.252;2023-04-29T03:27:58;97621.97;;;9.00
64458;BMP280;58438;51.200;7.252;2023-04-29T03:30:45;97614.13;;;9.02
64458;BMP280;58438;51.200;7.252;2023-04-29T03:33:33;97619.56;;;9.02
64458;BMP280;58438;51.200;7.252;2023-04-29T03:36:20;97619.84;;;9.04
64458;BMP280;58438;51.200;7.252;2023-04-29T03:39:08;97619.06;;;9.03
64458;BMP280;58438;51.200;7.252;2023-04-29T03:41:56;97619.16;;;8.94
64458;BMP280;58438;51.200;7.252;2023-04-29T03:44:44;97619.91;;;8.95
64458;BMP280;58438;51.200;7.252;2023-04-29T03:47:31;97629.38;;;8.99
64458;BMP280;58438;51.200;7.252;2023-04-29T03:50:18;97629.19;;;9.03
64458;BMP280;58438;51.200;7.252;2023-04-29T03:53:05;97627.69;;;9.02
64458;BMP280;58438;51.200;7.252;2023-04-29T03:55:54;97626.19;;;9.01
64458;BMP280;58438;51.200;7.252;2023-04-29T03:58:41;97625.59;;;8.97
64458;BMP280;58438;51.200;7.252;2023-04-29T04:01:28;97629.06;;;8.97
64458;BMP280;58438;51.200;7.252;2023-04-29T04:04:15;97638.66;;;9.07
64458;BMP280;58438;51.200;7.252;2023-04-29T04:07:03;97632.94;;;9.05
64458;BMP280;58438;51.200;7.252;2023-04-29T04:09:51;97644.16;;;8.98
64458;BMP280;58438;51.200;7.252;2023-04-29T04:12:39;97649.78;;;8.95
64458;BMP280;58438;51.200;7.252;2023-04-29T04:15:28;97646.47;;;8.91
64458;BMP280;58438;51.200;7.252;2023-04-29T04:18:15;97654.59;;;8.91
64458;BMP280;58438;51.200;7.252;2023-04-29T04:21:06;97656.88;;;8.92
64458;BMP280;58438;51.200;7.252;2023-04-29T04:23:54;97657.63;;;8.93
64458;BMP280;58438;51.200;7.252;2023-04-29T04:26:40;97653.38;;;8.92
64458;BMP280;58438;51.200;7.252;2023-04-29T04:29:29;97659.28;;;8.90
64458;BMP280;58438;51.200;7.252;2023-04-29T04:32:16;97660.63;;;8.95
64458;BMP280;58438;51.200;7.252;2023-04-29T04:35:04;97670.88;;;8.91
64458;BMP280;58438;51.200;7.252;2023-04-29T04:37:51;97671.06;;;8.87
64458;BMP280;58438;51.200;7.252;2023-04-29T04:40:39;97672.44;;;8.83
64458;BMP280;58438;51.200;7.252;2023-04-29T04:43:26;97679.38;;;8.84
64458;BMP280;58438;51.200;7.252;2023-04-29T04:46:15;97679.84;;;8.82
64458;BMP280;58438;51.200;7.252;2023-04-29T04:49:02;97687.53;;;8.84
64458;BMP280;58438;51.200;7.252;2023-04-29T04:51:49;97689.91;;;8.91
64458;BMP280;58438;51.200;7.252;2023-04-29T04:54:37;97691.44;;;8.83
64458;BMP280;58438;51.200;7.252;2023-04-29T04:57:24;97695.66;;;8.84
64458;BMP280;58438;51.200;7.252;2023-04-29T05:00:12;97691.16;;;8.81
64458;BMP280;58438;51.200;7.252;2023-04-29T05:03:00;97697.22;;;8.76
64458;BMP280;58438;51.200;7.252;2023-04-29T05:05:51;97699.06;;;8.70
64458;BMP280;58438;51.200;7.252;2023-04-29T05:08:38;97699.81;;;8.70
64458;BMP280;58438;51.200;7.252;2023-04-29T05:11:25;97697.53;;;8.69
64458;BMP280;58438;51.200;7.252;2023-04-29T05:14:12;97697.84;;;8.71
64458;BMP280;58438;51.200;7.252;2023-04-29T05:16:59;97702.97;;;8.69
64458;BMP280;58438;51.200;7.252;2023-04-29T05:19:48;97709.28;;;8.75
64458;BMP280;58438;51.200;7.252;2023-04-29T05:22:36;97711.09;;;8.78
64458;BMP280;58438;51.200;7.252;2023-04-29T05:25:23;97715.34;;;8.70
64458;BMP280;58438;51.200;7.252;2023-04-29T05:28:10;97710.66;;;8.70
64458;BMP280;58438;51.200;7.252;2023-04-29T05:30:57;97714.88;;;8.71
64458;BMP280;58438;51.200;7.252;2023-04-29T05:33:44;97721.38;;;8.74
64458;BMP280;58438;51.200;7.252;2023-04-29T05:36:32;97730.56;;;8.76
64458;BMP280;58438;51.200;7.252;2023-04-29T05:39:20;97727.72;;;8.71
64458;BMP280;58438;51.200;7.252;2023-04-29T05:42:07;97730.56;;;8.76
64458;BMP280;58438;51.200;7.252;2023-04-29T05:44:55;97742.50;;;8.70
64458;BMP280;58438;51.200;7.252;2023-04-29T05:47:42;97739.97;;;8.66
64458;BMP280;58438;51.200;7.252;2023-04-29T05:50:29;97748.25;;;8.63
64458;BMP280;58438;51.200;7.252;2023-04-29T05:53:18;97747.34;;;8.66
64458;BMP280;58438;51.200;7.252;2023-04-29T05:56:05;97745.50;;;8.72
64458;BMP280;58438;51.200;7.252;2023-04-29T05:58:53;97761.50;;;8.70
64458;BMP280;58438;51.200;7.252;2023-04-29T06:01:40;97765.72;;;8.71
64458;BMP280;58438;51.200;7.252;2023-04-29T06:04:27;97766.78;;;8.64
64458;BMP280;58438;51.200;7.252;2023-04-29T06:07:15;97765.72;;;8.71
64458;BMP280;58438;51.200;7.252;2023-04-29T06:10:07;97771.19;;;8.62
64458;BMP280;58438;51.200;7.252;2023-04-29T06:12:55;97775.69;;;8.65
64458;BMP280;58438;51.200;7.252;2023-04-29T06:15:44;97775.06;;;8.70
64458;BMP280;58438;51.200;7.252;2023-04-29T06:18:31;97787.28;;;8.74
64458;BMP280;58438;51.200;7.252;2023-04-29T06:21:18;97784.84;;;8.76
64458;BMP280;58438;51.200;7.252;2023-04-29T06:24:05;97787.72;;;8.73
64458;BMP280;58438;51.200;7.252;2023-04-29T06:26:54;97787.44;;;8.71
64458;BMP280;58438;51.200;7.252;2023-04-29T06:29:41;97797.38;;;8.74
64458;BMP280;58438;51.200;7.252;2023-04-29T06:32:28;97808.38;;;8.70
64458;BMP280;58438;51.200;7.252;2023-04-29T06:35:15;97804.94;;;8.61
64458;BMP280;58438;51.200;7.252;2023-04-29T06:38:03;97814.91;;;8.64
64458;BMP280;58438;51.200;7.252;2023-04-29T06:40:50;97818.06;;;8.62
64458;BMP280;58438;51.200;7.252;2023-04-29T06:43:38;97826.03;;;8.66
64458;BMP280;58438;51.200;7.252;2023-04-29T06:46:28;97816.97;;;8.69
64458;BMP280;58438;51.200;7.252;2023-04-29T06:49:16;97822.38;;;8.69
64458;BMP280;58438;51.200;7.252;2023-04-29T06:52:03;97827.81;;;8.69
64458;BMP280;58438;51.200;7.252;2023-04-29T06:54:50;97842.44;;;8.71
64458;BMP280;58438;51.200;7.252;2023-04-29T06:57:37;97836.44;;;8.67
64458;BMP280;58438;51.200;7.252;2023-04-29T07:00:26;97842.59;;;8.68
64458;BMP280;58438;51.200;7.252;2023-04-29T07:03:13;97842.44;;;8.71
64458;BMP280;58438;51.200;7.252;2023-04-29T07:06:01;97848.34;;;8.70
64458;BMP280;58438;51.200;7.252;2023-04-29T07:08:48;97850.16;;;8.73
64458;BMP280;58438;51.200;7.252;2023-04-29T07:11:38;97852.09;;;8.72
64458;BMP280;58438;51.200;7.252;2023-04-29T07:14:25;97859.19;;;8.70
64458;BMP280;58438;51.200;7.252;2023-04-29T07:17:14;97867.78;;;8.68
64458;BMP280;58438;51.200;7.252;2023-04-29T07:20:01;97866.13;;;8.71
64458;BMP280;58438;51.200;7.252;2023-04-29T07:22:49;97865.50;;;8.76
64458;BMP280;58438;51.200;7.252;2023-04-29T07:25:36;97870.94;;;8.76
64458;BMP280;58438;51.200;7.252;2023-04-29T07:28:23;97881.03;;;8.84
64458;BMP280;58438;51.200;7.252;2023-04-29T07:31:10;97889.94;;;8.85
64458;BMP280;58438;51.200;7.252;2023-04-29T07:34:00;97886.88;;;8.92
64458;BMP280;58438;51.200;7.252;2023-04-29T07:36:47;97886.00;;;8.95
64458;BMP280;58438;51.200;7.252;2023-04-29T07:39:34;97894.28;;;8.91
64458;BMP280;58438;51.200;7.252;2023-04-29T07:42:22;97895.91;;;8.98
64458;BMP280;58438;51.200;7.252;2023-04-29T07:45:09;97895.34;;;8.94
64458;BMP280;58438;51.200;7.252;2023-04-29T07:47:58;97904.06;;;8.98
64458;BMP280;58438;51.200;7.252;2023-04-29T07:50:46;97906.03;;;8.97
64458;BMP280;58438;51.200;7.252;2023-04-29T07:53:33;97906.47;;;8.96
64458;BMP280;58438;51.200;7.252;2023-04-29T07:56:20;97914.91;;;8.98
64458;BMP280;58438;51.200;7.252;2023-04-29T07:59:08;97914.78;;;9.01
64458;BMP280;58438;51.200;7.252;2023-04-29T08:01:55;97916.41;;;8.99
64458;BMP280;58438;51.200;7.252;2023-04-29T08:04:43;97919.91;;;8.99
64458;BMP280;58438;51.200;7.252;2023-04-29T08:07:32;97918.41;;;8.98
64458;BMP280;58438;51.200;7.252;2023-04-29T08:10:19;97927.28;;;8.99
64458;BMP280;58438;51.200;7.252;2023-04-29T08:13:07;97923.25;;;8.94
64458;BMP280;58438;51.200;7.252;2023-04-29T08:15:54;97924.16;;;8.91
64458;BMP280;58438;51.200;7.252;2023-04-29T08:18:44;97927.59;;;8.92
64458;BMP280;58438;51.200;7.252;2023-04-29T08:21:31;97931.22;;;8.98
64458;BMP280;58438;51.200;7.252;2023-04-29T08:24:21;97935.63;;;8.86
64458;BMP280;58438;51.200;7.252;2023-04-29T08:27:08;97935.44;;;8.90
64458;BMP280;58438;51.200;7.252;2023-04-29T08:29:55;97944.50;;;8.87
64458;BMP280;58438;51.200;7.252;2023-04-29T08:32:42;97945.72;;;8.95
64458;BMP280;58438;51.200;7.252;2023-04-29T08:35:29;97948.88;;;8.93
64458;BMP280;58438;51.200;7.252;2023-04-29T08:38:16;97952.50;;;8.90
64458;BMP280;58438;51.200;7.252;2023-04-29T08:41:05;97949.34;;;9.01
64458;BMP280;58438;51.200;7.252;2023-04-29T08:43:53;97953.69;;;8.98
64458;BMP280;58438;51.200;7.252;2023-04-29T08:46:40;97962.28;;;8.97
64458;BMP280;58438;51.200;7.252;2023-04-29T08:49:28;97963.78;;;8.98
64458;BMP280;58438;51.200;7.252;2023-04-29T08:52:17;97962.28;;;8.97
64458;BMP280;58438;51.200;7.252;2023-04-29T08:55:05;97963.22;;;8.94
64458;BMP280;58438;51.200;7.252;2023-04-29T08:57:54;97975.31;;;8.93
64458;BMP280;58438;51.200;7.252;2023-04-29T09:00:42;97972.25;;;9.00
64458;BMP280;58438;51.200;7.252;2023-04-29T09:03:30;97972.84;;;9.04
64458;BMP280;58438;51.200;7.252;2023-04-29T09:06:20;97973.63;;;9.04
64458;BMP280;58438;51.200;7.252;2023-04-29T09:09:07;97981.28;;;8.97
64458;BMP280;58438;51.200;7.252;2023-04-29T09:11:55;97986.00;;;8.96
64458;BMP280;58438;51.200;7.252;2023-04-29T09:14:44;97986.28;;;8.98
64458;BMP280;58438;51.200;7.252;2023-04-29T09:17:38;97989.00;;;8.98
64458;BMP280;58438;51.200;7.252;2023-04-29T09:20:26;97999.09;;;8.98
64458;BMP280;58438;51.200;7.252;2023-04-29T09:23:14;97994.13;;;8.96
64458;BMP280;58438;51.200;7.252;2023-04-29T09:26:01;98006.81;;;8.99
64458;BMP280;58438;51.200;7.252;2023-04-29T09:28:53;98000.47;;;9.02
64458;BMP280;58438;51.200;7.252;2023-04-29T09:31:53;98005.44;;;9.04
64458;BMP280;58438;51.200;7.252;2023-04-29T09:34:42;98009.94;;;9.07
64458;BMP280;58438;51.200;7.252;2023-04-29T09:37:29;98006.34;;;9.10
64458;BMP280;58438;51.200;7.252;2023-04-29T09:40:28;98003.63;;;9.10
64458;BMP280;58438;51.200;7.252;2023-04-29T09:43:16;98013.41;;;9.07
64458;BMP280;58438;51.200;7.252;2023-04-29T09:46:04;98012.81;;;9.03
64458;BMP280;58438;51.200;7.252;2023-04-29T09:48:52;98011.78;;;9.01
64458;BMP280;58438;51.200;7.252;2023-04-29T09:51:45;98020.81;;;9.07
64458;BMP280;58438;51.200;7.252;2023-04-29T09:54:38;98028.94;;;9.07
64458;BMP280;58438;51.200;7.252;2023-04-29T09:57:25;98019.00;;;9.13
64458;BMP280;58438;51.200;7.252;2023-04-29T10:00:27;98024.59;;;9.00
64458;BMP280;58438;51.200;7.252;2023-04-29T10:03:16;98027.00;;;9.07
64458;BMP280;58438;51.200;7.252;2023-04-29T10:06:08;98026.41;;;9.03
64458;BMP280;58438;51.200;7.252;2023-04-29T10:08:55;98033.19;;;9.08
64458;BMP280;58438;51.200;7.252;2023-04-29T10:11:42;98034.72;;;9.09
64458;BMP280;58438;51.200;7.252;2023-04-29T10:14:30;98036.81;;;9.05
64458;BMP280;58438;51.200;7.252;2023-04-29T10:17:20;98037.75;;;9.02
64458;BMP280;58438;51.200;7.252;2023-04-29T10:20:10;98046.78;;;9.08
64458;BMP280;58438;51.200;7.252;2023-04-29T10:23:00;98041.53;;;9.04
64458;BMP280;58438;51.200;7.252;2023-04-29T10:25:48;98041.34;;;9.08
64458;BMP280;58438;51.200;7.252;2023-04-29T10:28:38;98042.84;;;9.09
64458;BMP280;58438;51.200;7.252;2023-04-29T10:31:26;98048.72;;;9.07
64458;BMP280;58438;51.200;7.252;2023-04-29T10:34:14;98044.81;;;9.08
64458;BMP280;58438;51.200;7.252;2023-04-29T10:37:02;98054.16;;;9.07
64458;BMP280;58438;51.200;7.252;2023-04-29T10:39:54;98053.41;;;9.16
64458;BMP280;58438;51.200;7.252;2023-04-29T10:42:44;98048.41;;;9.14
64458;BMP280;58438;51.200;7.252;2023-04-29T10:45:32;98060.66;;;9.19
64458;BMP280;58438;51.200;7.252;2023-04-29T10:48:21;98058.22;;;9.21
64458;BMP280;58438;51.200;7.252;2023-04-29T10:51:10;98058.69;;;9.19
64458;BMP280;58438;51.200;7.252;2023-04-29T10:53:58;98065.16;;;9.22
64458;BMP280;58438;51.200;7.252;2023-04-29T10:56:47;98077.84;;;9.25
64458;BMP280;58438;51.200;7.252;2023-04-29T11:02:43;98070.13;;;9.23
64458;BMP280;58438;51.200;7.252;2023-04-29T11:05:31;98077.84;;;9.25
64458;BMP280;58438;51.200;7.252;2023-04-29T11:08:19;98070.63;;;9.31
64458;BMP280;58438;51.200;7.252;2023-04-29T11:11:09;98075.56;;;9.23
64458;BMP280;58438;51.200;7.252;2023-04-29T11:13:57;98084.19;;;9.31
64458;BMP280;58438;51.200;7.252;2023-04-29T11:16:45;98082.66;;;9.39
64458;BMP280;58438;51.200;7.252;2023-04-29T11:19:34;98088.41;;;9.41
64458;BMP280;58438;51.200;7.252;2023-04-29T11:22:25;98088.22;;;9.44
64458;BMP280;58438;51.200;7.252;2023-04-29T11:25:13;98083.88;;;9.38
64458;BMP280;58438;51.200;7.252;2023-04-29T11:28:00;98082.66;;;9.48
64458;BMP280;58438;51.200;7.252;2023-04-29T11:30:48;98081.28;;;9.43
64458;BMP280;58438;51.200;7.252;2023-04-29T11:33:36;98087.03;;;9.36
64458;BMP280;58438;51.200;7.252;2023-04-29T11:36:23;98086.72;;;9.43
64458;BMP280;58438;51.200;7.252;2023-04-29T23:17:28;98399.41;;;8.79
64458;BMP280;58438;51.200;7.252;2023-04-29T23:20:16;98402.13;;;8.79
64458;BMP280;58438;51.200;7.252;2023-04-29T23:23:03;98394.59;;;8.83
64458;BMP280;58438;51.200;7.252;2023-04-29T23:25:50;98398.91;;;8.71
64458;BMP280;58438;51.200;7.252;2023-04-29T23:28:37;98399.41;;;8.79
64458;BMP280;58438;51.200;7.252;2023-04-29T23:31:24;98408.69;;;8.69
64458;BMP280;58438;51.200;7.252;2023-04-29T23:34:13;98400.63;;;8.56
64458;BMP280;58438;51.200;7.252;2023-04-29T23:37:01;98394.75;;;8.58
64458;BMP280;58438;51.200;7.252;2023-04-29T23:39:48;98397.44;;;8.58
64458;BMP280;58438;51.200;7.252;2023-04-29T23:42:36;98397.72;;;8.51
64458;BMP280;58438;51.200;7.252;2023-04-29T23:45:23;98395.56;;;8.46
64458;BMP280;58438;51.200;7.252;2023-04-29T23:48:11;98394.88;;;8.33
64458;BMP280;58438;51.200;7.252;2023-04-29T23:50:59;98394.00;;;8.36
64458;BMP280;58438;51.200;7.252;2023-04-29T23:53:46;98396.69;;;8.36
64458;BMP280;58438;51.200;7.252;2023-04-29T23:56:33;98392.66;;;8.41
64458;BMP280;58438;51.200;7.252;2023-04-29T23:59:20;98392.00;;;8.28
